createdAt,value
2023-03-12T00:01:23.100Z,6.20
2023-03-12T00:03:50.982Z,6.47
2023-03-12T00:06:20.149Z,6.18
2023-03-12T00:08:48.205Z,6.10
2023-03-12T00:11:16.865Z,6.57
2023-03-12T00:13:44.612Z,6.15
2023-03-12T00:16:13.773Z,6.10
2023-03-12T00:18:42.062Z,6.15
2023-03-12T00:21:10.166Z,7.45
2023-03-12T00:23:39.534Z,6.95
2023-03-12T00:26:08.398Z,6.47
2023-03-12T00:28:36.100Z,7.63
2023-03-12T00:31:04.401Z,7.13
2023-03-12T00:33:32.129Z,8.20
2023-03-12T00:36:01.380Z,7.72
2023-03-12T00:38:29.147Z,7.10
2023-03-12T00:40:58.216Z,7.60
2023-03-12T00:43:25.939Z,6.70
2023-03-12T00:45:53.756Z,7.03
2023-03-12T00:48:21.621Z,6.95
2023-03-12T00:50:49.420Z,7.10
2023-03-12T00:53:17.235Z,7.35
2023-03-12T00:55:45.008Z,6.93
2023-03-12T00:58:14.163Z,7.10
2023-03-12T01:00:41.944Z,6.90
2023-03-12T01:03:09.655Z,6.75
2023-03-12T01:05:37.909Z,6.90
2023-03-12T01:08:05.851Z,6.70
2023-03-12T01:10:33.574Z,6.43
2023-03-12T01:13:01.268Z,6.82
2023-03-12T01:15:30.899Z,6.32
2023-03-12T01:17:58.680Z,6.78
2023-03-12T01:20:26.719Z,6.88
2023-03-12T01:22:54.426Z,6.40
2023-03-12T01:25:22.321Z,6.53
2023-03-12T01:27:50.074Z,6.55
2023-03-12T01:30:17.853Z,7.45
2023-03-12T01:32:46.994Z,6.75
2023-03-12T01:35:14.765Z,8.15
2023-03-12T01:37:42.579Z,7.50
2023-03-12T01:40:15.154Z,7.15
2023-03-12T01:42:43.131Z,7.22
2023-03-12T01:45:25.956Z,8.15
2023-03-12T01:47:55.152Z,7.50
2023-03-12T01:50:23.196Z,7.95
2023-03-12T01:52:50.960Z,7.20
2023-03-12T01:55:19.007Z,7.82
2023-03-12T01:57:51.284Z,8.23
2023-03-12T02:00:21.137Z,8.18
2023-03-12T02:02:50.647Z,10.07
2023-03-12T02:05:26.330Z,10.45
2023-03-12T02:07:54.918Z,10.30
2023-03-12T02:10:23.046Z,9.38
2023-03-12T02:12:50.994Z,8.20
2023-03-12T02:15:18.975Z,8.73
2023-03-12T02:17:47.195Z,8.13
2023-03-12T02:20:16.348Z,7.68
2023-03-12T02:22:50.475Z,8.50
2023-03-12T02:25:31.012Z,8.60
2023-03-12T02:27:59.771Z,8.13
2023-03-12T02:30:28.888Z,8.23
2023-03-12T02:32:57.141Z,6.85
2023-03-12T02:35:25.000Z,7.10
2023-03-12T02:37:54.179Z,7.60
2023-03-12T02:40:24.642Z,7.53
2023-03-12T02:42:54.833Z,8.32
2023-03-12T02:45:22.900Z,9.55
2023-03-12T02:47:50.717Z,10.13
2023-03-12T02:50:18.460Z,9.80
2023-03-12T02:52:46.324Z,12.13
2023-03-12T02:55:14.110Z,12.27
2023-03-12T02:57:43.643Z,13.02
2023-03-12T03:00:16.809Z,12.32
2023-03-12T03:02:50.026Z,11.43
2023-03-12T03:05:18.062Z,11.20
2023-03-12T03:07:45.876Z,12.35
2023-03-12T03:10:15.545Z,11.18
2023-03-12T03:12:43.370Z,12.75
2023-03-12T03:15:11.884Z,12.07
2023-03-12T03:17:41.654Z,12.75
2023-03-12T03:20:11.419Z,12.90
2023-03-12T03:22:39.354Z,14.18
2023-03-12T03:25:07.544Z,13.45
2023-03-12T03:27:35.527Z,13.18
2023-03-12T03:30:03.295Z,13.38
2023-03-12T03:32:33.923Z,13.60
2023-03-12T03:35:04.164Z,14.07
2023-03-12T03:37:32.147Z,16.80
2023-03-12T03:40:00.411Z,15.20
2023-03-12T03:42:28.311Z,16.55
2023-03-12T03:44:56.191Z,15.85
2023-03-12T03:47:24.020Z,15.80
2023-03-12T03:49:51.753Z,16.23
2023-03-12T03:52:20.978Z,16.42
2023-03-12T03:54:48.790Z,16.92
2023-03-12T03:57:16.610Z,17.30
2023-03-12T03:59:44.301Z,19.35
2023-03-12T04:02:12.118Z,19.50
2023-03-12T04:04:40.776Z,21.58
2023-03-12T04:07:09.755Z,20.25
2023-03-12T04:09:39.619Z,19.95
2023-03-12T04:12:07.815Z,21.30
2023-03-12T04:14:40.462Z,22.77
2023-03-12T04:17:08.492Z,19.52
2023-03-12T04:19:37.014Z,20.45
2023-03-12T04:22:06.328Z,22.38
2023-03-12T04:24:34.097Z,19.20
2023-03-12T04:27:03.491Z,20.58
2023-03-12T04:29:31.682Z,18.75
2023-03-12T04:31:59.375Z,19.13
2023-03-12T04:34:27.200Z,20.55
2023-03-12T04:36:56.074Z,18.55
2023-03-12T04:39:24.283Z,19.83
2023-03-12T04:41:53.539Z,20.48
2023-03-12T04:44:22.772Z,20.77
2023-03-12T04:46:50.808Z,19.15
2023-03-12T04:49:22.078Z,20.67
2023-03-12T04:51:50.168Z,21.75
2023-03-12T04:54:21.026Z,19.85
2023-03-12T04:56:49.577Z,19.35
2023-03-12T04:59:17.552Z,18.60
2023-03-12T05:01:48.159Z,17.52
2023-03-12T05:04:21.211Z,17.38
2023-03-12T05:06:50.804Z,16.73
2023-03-12T05:09:18.566Z,16.23
2023-03-12T05:11:46.350Z,14.75
2023-03-12T05:14:17.096Z,14.07
2023-03-12T05:16:48.044Z,14.02
2023-03-12T05:19:16.140Z,12.57
2023-03-12T05:21:44.266Z,11.65
2023-03-12T05:24:12.421Z,11.50
2023-03-12T05:26:40.291Z,11.55
2023-03-12T05:29:17.941Z,10.65
2023-03-12T05:31:46.012Z,9.80
2023-03-12T05:34:15.166Z,10.05
2023-03-12T05:36:45.342Z,10.27
2023-03-12T05:39:15.673Z,10.73
2023-03-12T05:41:44.024Z,12.65
2023-03-12T05:44:16.098Z,11.57
2023-03-12T05:46:46.802Z,11.20
2023-03-12T05:49:16.028Z,11.48
2023-03-12T05:51:44.252Z,12.00
2023-03-12T05:54:12.058Z,12.45
2023-03-12T05:56:40.497Z,11.68
2023-03-12T05:59:10.512Z,11.05
2023-03-12T06:01:39.531Z,10.23
2023-03-12T06:04:07.421Z,10.93
2023-03-12T06:06:37.695Z,11.38
2023-03-12T06:09:06.555Z,10.77
2023-03-12T06:11:34.700Z,10.23
2023-03-12T06:14:02.901Z,10.60
2023-03-12T06:16:31.768Z,10.98
2023-03-12T06:19:00.417Z,11.07
2023-03-12T06:21:29.273Z,10.52
2023-03-12T06:23:58.591Z,10.32
2023-03-12T06:26:31.273Z,8.63
2023-03-12T06:28:59.006Z,9.75
2023-03-12T06:31:26.823Z,9.45
2023-03-12T06:33:54.739Z,9.27
2023-03-12T06:36:23.009Z,8.63
2023-03-12T06:38:50.778Z,9.50
2023-03-12T06:41:21.081Z,12.02
2023-03-12T06:43:49.253Z,8.98
2023-03-12T06:46:18.678Z,8.35
2023-03-12T06:48:46.659Z,8.38
2023-03-12T06:51:15.182Z,8.93
2023-03-12T06:53:42.998Z,8.48
2023-03-12T06:56:11.322Z,9.30
2023-03-12T06:58:40.446Z,7.90
2023-03-12T07:01:08.281Z,8.27
2023-03-12T07:03:36.113Z,8.80
2023-03-12T07:06:04.454Z,7.30
2023-03-12T07:08:32.179Z,7.55
2023-03-12T07:11:01.976Z,7.53
2023-03-12T07:13:30.163Z,10.45
2023-03-12T07:15:59.241Z,8.65
2023-03-12T07:18:27.089Z,7.72
2023-03-12T07:20:54.951Z,8.38
2023-03-12T07:23:23.508Z,8.55
2023-03-12T07:25:51.394Z,9.68
2023-03-12T07:28:19.118Z,8.00
2023-03-12T07:30:50.473Z,7.72
2023-03-12T07:33:20.595Z,7.28
2023-03-12T07:35:51.523Z,9.68
2023-03-12T07:38:19.707Z,8.25
2023-03-12T07:40:51.455Z,7.78
2023-03-12T07:43:21.546Z,7.72
2023-03-12T07:45:50.584Z,6.95
2023-03-12T07:48:20.200Z,7.05
2023-03-12T07:50:48.733Z,7.30
2023-03-12T07:53:16.668Z,6.50
2023-03-12T07:55:46.143Z,6.57
2023-03-12T07:58:14.297Z,8.95
2023-03-12T08:00:42.177Z,6.85
2023-03-12T08:03:10.354Z,6.43
2023-03-12T08:05:39.575Z,5.63
2023-03-12T08:08:07.752Z,6.07
2023-03-12T08:10:35.514Z,6.40
2023-03-12T08:13:03.279Z,6.28
2023-03-12T08:15:31.006Z,6.05
2023-03-12T08:17:59.401Z,6.10
2023-03-12T08:20:27.903Z,5.90
2023-03-12T08:22:57.343Z,5.28
2023-03-12T08:25:25.143Z,5.03
2023-03-12T08:27:53.001Z,5.65
2023-03-12T08:30:20.779Z,4.90
2023-03-12T08:32:48.646Z,4.93
2023-03-12T08:35:16.485Z,5.95
2023-03-12T08:37:44.261Z,5.25
2023-03-12T08:40:13.885Z,5.75
2023-03-12T08:42:41.883Z,4.53
2023-03-12T08:45:10.198Z,5.78
2023-03-12T08:47:39.872Z,4.95
2023-03-12T08:50:08.781Z,5.68
2023-03-12T08:52:36.457Z,7.00
2023-03-12T08:55:05.918Z,5.90
2023-03-12T08:57:35.726Z,4.45
2023-03-12T09:00:05.843Z,5.75
2023-03-12T09:02:33.665Z,4.65
2023-03-12T09:05:01.445Z,4.72
2023-03-12T09:07:29.120Z,6.53
2023-03-12T09:09:57.085Z,8.57
2023-03-12T09:12:24.847Z,6.30
2023-03-12T09:15:09.251Z,7.63
2023-03-12T09:17:38.829Z,4.55
2023-03-12T09:20:08.542Z,5.63
2023-03-12T09:22:37.088Z,7.00
2023-03-12T09:25:05.017Z,12.27
2023-03-12T09:27:36.294Z,7.20
2023-03-12T09:30:06.627Z,8.13
2023-03-12T09:32:34.952Z,6.13
2023-03-12T09:35:02.889Z,6.38
2023-03-12T09:37:32.318Z,5.80
2023-03-12T09:40:00.095Z,7.03
2023-03-12T09:42:31.247Z,4.60
2023-03-12T09:45:01.360Z,4.80
2023-03-12T09:47:31.645Z,4.80
2023-03-12T09:50:03.733Z,7.00
2023-03-12T09:52:34.619Z,5.95
2023-03-12T09:55:04.065Z,4.80
2023-03-12T09:57:31.834Z,5.45
2023-03-12T09:59:59.591Z,6.22
2023-03-12T10:02:45.191Z,6.65
2023-03-12T10:05:20.039Z,11.13
2023-03-12T10:07:49.657Z,6.32
2023-03-12T10:10:24.631Z,8.73
2023-03-12T10:13:07.769Z,9.02
2023-03-12T10:15:40.560Z,7.10
2023-03-12T10:18:15.561Z,6.97
2023-03-12T10:20:51.064Z,5.00
2023-03-12T10:23:23.480Z,5.60
2023-03-12T10:25:53.807Z,6.28
2023-03-12T10:28:23.029Z,6.22
2023-03-12T10:30:52.894Z,5.57
2023-03-12T10:33:21.069Z,4.93
2023-03-12T10:35:54.514Z,6.82
2023-03-12T10:38:26.193Z,5.82
2023-03-12T10:40:53.962Z,5.95
2023-03-12T10:43:21.650Z,6.45
2023-03-12T10:45:55.338Z,5.80
2023-03-12T10:48:26.801Z,6.22
2023-03-12T10:51:06.084Z,6.45
2023-03-12T10:53:35.483Z,6.30
2023-03-12T10:56:05.535Z,5.55
2023-03-12T10:58:35.564Z,6.35
2023-03-12T11:01:06.432Z,6.35
2023-03-12T11:03:34.919Z,5.65
2023-03-12T11:06:08.124Z,5.93
2023-03-12T11:08:36.833Z,5.93
2023-03-12T11:11:05.418Z,6.90
2023-03-12T11:13:34.290Z,6.80
2023-03-12T11:16:02.952Z,6.57
2023-03-12T11:18:33.146Z,5.10
2023-03-12T11:21:16.976Z,5.40
2023-03-12T11:23:48.221Z,5.47
2023-03-12T11:26:19.209Z,5.50
2023-03-12T11:28:48.555Z,5.53
2023-03-12T11:31:20.289Z,5.60
2023-03-12T11:33:48.010Z,5.38
2023-03-12T11:36:23.230Z,4.57
2023-03-12T11:38:55.828Z,4.63
2023-03-12T11:41:28.206Z,4.57
2023-03-12T11:44:02.655Z,4.30
2023-03-12T11:46:35.268Z,4.70
2023-03-12T11:49:12.736Z,4.55
2023-03-12T11:51:45.822Z,4.72
2023-03-12T11:54:23.358Z,5.22
2023-03-12T11:56:53.741Z,4.00
2023-03-12T11:59:27.056Z,4.60
2023-03-12T12:01:59.346Z,4.22
2023-03-12T12:04:45.308Z,5.05
2023-03-12T12:07:18.336Z,4.55
2023-03-12T12:09:49.979Z,4.60
2023-03-12T12:12:22.351Z,4.07
2023-03-12T12:14:56.724Z,4.78
2023-03-12T12:17:31.740Z,4.55
2023-03-12T12:20:09.190Z,4.07
2023-03-12T12:22:45.464Z,4.57
2023-03-12T12:25:22.990Z,4.40
2023-03-12T12:27:54.199Z,4.00
2023-03-12T12:30:25.457Z,4.32
2023-03-12T12:33:00.102Z,4.38
2023-03-12T12:35:31.371Z,3.90
2023-03-12T12:38:03.777Z,4.72
2023-03-12T12:40:37.476Z,5.13
2023-03-12T12:43:10.374Z,4.70
2023-03-12T12:45:39.954Z,3.90
2023-03-12T12:48:10.074Z,4.35
2023-03-12T12:50:39.944Z,4.35
2023-03-12T12:53:15.128Z,3.80
2023-03-12T12:55:47.464Z,4.22
2023-03-12T12:58:18.272Z,4.20
2023-03-12T13:00:50.311Z,3.47
2023-03-12T13:03:19.668Z,3.45
2023-03-12T13:05:58.119Z,3.60
2023-03-12T13:08:53.121Z,3.03
2023-03-12T13:11:28.124Z,4.40
2023-03-12T13:14:10.688Z,3.88
2023-03-12T13:16:39.576Z,3.85
2023-03-12T13:19:09.667Z,5.15
2023-03-12T13:21:40.318Z,3.92
2023-03-12T13:24:17.939Z,3.88
2023-03-12T13:26:54.636Z,6.78
2023-03-12T13:29:24.043Z,3.58
2023-03-12T13:31:52.178Z,2.60
2023-03-12T13:34:53.270Z,2.83
2023-03-12T13:37:27.913Z,3.58
2023-03-12T13:39:55.672Z,3.20
2023-03-12T13:42:47.272Z,3.28
2023-03-12T13:45:26.086Z,2.90
2023-03-12T13:47:56.643Z,3.03
2023-03-12T13:50:24.482Z,3.55
2023-03-12T13:52:57.410Z,3.05
2023-03-12T13:55:26.289Z,2.92
2023-03-12T13:57:55.487Z,2.72
2023-03-12T14:00:28.326Z,2.70
2023-03-12T14:02:58.676Z,2.45
2023-03-12T14:05:27.343Z,2.00
2023-03-12T14:08:15.950Z,2.22
2023-03-12T14:10:49.231Z,2.08
2023-03-12T14:13:29.766Z,1.70
2023-03-12T14:16:01.686Z,2.08
2023-03-12T14:18:31.205Z,2.00
2023-03-12T14:20:59.970Z,1.73
2023-03-12T14:23:29.547Z,1.90
2023-03-12T14:25:59.521Z,1.80
2023-03-12T14:28:28.025Z,2.13
2023-03-12T14:30:58.212Z,2.03
2023-03-12T14:33:29.955Z,1.77
2023-03-12T14:35:59.871Z,1.30
2023-03-12T14:38:31.200Z,1.33
2023-03-12T14:41:01.661Z,1.77
2023-03-12T14:43:30.290Z,1.50
2023-03-12T14:45:58.999Z,1.50
2023-03-12T14:48:30.452Z,1.38
2023-03-12T14:50:58.812Z,1.20
2023-03-12T14:53:27.835Z,1.40
2023-03-12T14:56:03.120Z,1.60
2023-03-12T14:58:30.945Z,1.73
2023-03-12T15:00:59.857Z,2.35
2023-03-12T15:03:29.805Z,2.17
2023-03-12T15:05:57.601Z,2.03
2023-03-12T15:08:27.264Z,1.30
2023-03-12T15:10:57.162Z,1.52
2023-03-12T15:13:25.990Z,1.80
2023-03-12T15:15:54.581Z,1.42
2023-03-12T15:18:24.326Z,1.65
2023-03-12T15:20:54.413Z,1.73
2023-03-12T15:23:23.462Z,1.40
2023-03-12T15:26:06.043Z,1.52
2023-03-12T15:28:33.768Z,2.15
2023-03-12T15:31:09.001Z,1.58
2023-03-12T15:33:37.798Z,1.60
2023-03-12T15:36:24.768Z,1.67
2023-03-12T15:38:54.941Z,1.25
2023-03-12T15:41:23.845Z,1.30
2023-03-12T15:43:53.511Z,1.75
2023-03-12T15:46:21.379Z,1.30
2023-03-12T15:48:52.483Z,1.40
2023-03-12T15:51:35.460Z,1.50
2023-03-12T15:54:04.855Z,1.55
2023-03-12T15:56:33.372Z,1.85
2023-03-12T15:59:02.087Z,2.63
2023-03-12T16:01:29.876Z,2.05
2023-03-12T16:03:58.643Z,3.30
2023-03-12T16:06:29.727Z,2.17
2023-03-12T16:08:59.948Z,2.92
2023-03-12T16:11:29.075Z,1.60
2023-03-12T16:13:59.502Z,1.75
2023-03-12T16:16:27.344Z,1.52
2023-03-12T16:18:55.070Z,1.88
2023-03-12T16:21:22.826Z,1.98
2023-03-12T16:23:50.568Z,2.30
2023-03-12T16:26:19.640Z,1.98
2023-03-12T16:28:47.386Z,2.20
2023-03-12T16:31:17.424Z,2.53
2023-03-12T16:33:45.366Z,3.00
2023-03-12T16:36:14.065Z,3.05
2023-03-12T16:38:43.627Z,2.42
2023-03-12T16:41:14.003Z,3.00
2023-03-12T16:43:43.744Z,2.95
2023-03-12T16:46:13.442Z,2.85
2023-03-12T16:48:41.173Z,2.25
2023-03-12T16:51:13.579Z,3.00
2023-03-12T16:53:41.422Z,2.33
2023-03-12T16:56:15.243Z,2.40
2023-03-12T16:58:44.568Z,3.73
2023-03-12T17:01:13.703Z,4.03
2023-03-12T17:03:43.671Z,3.28
2023-03-12T17:06:14.346Z,3.03
2023-03-12T17:08:42.984Z,2.10
2023-03-12T17:11:21.726Z,1.90
2023-03-12T17:13:52.484Z,1.98
2023-03-12T17:16:20.691Z,1.80
2023-03-12T17:18:48.785Z,2.00
2023-03-12T17:21:17.371Z,1.73
2023-03-12T17:23:46.710Z,1.50
2023-03-12T17:26:14.495Z,2.30
2023-03-12T17:28:42.136Z,4.28
2023-03-12T17:31:11.578Z,3.72
2023-03-12T17:33:39.246Z,4.80
2023-03-12T17:36:09.236Z,2.35
2023-03-12T17:38:37.852Z,2.35
2023-03-12T17:41:16.518Z,2.33
2023-03-12T17:43:51.456Z,2.75
2023-03-12T17:46:21.111Z,2.15
2023-03-12T17:48:48.817Z,2.15
2023-03-12T17:51:16.935Z,1.80
2023-03-12T17:53:44.657Z,1.85
2023-03-12T17:56:12.806Z,2.03
2023-03-12T17:58:40.609Z,1.67
2023-03-12T18:01:08.487Z,1.90
2023-03-12T18:03:37.715Z,2.00
2023-03-12T18:06:05.908Z,2.20
2023-03-12T18:08:33.793Z,2.25
2023-03-12T18:11:02.952Z,2.42
2023-03-12T18:13:30.673Z,2.17
2023-03-12T18:15:59.636Z,2.40
2023-03-12T18:18:29.473Z,2.15
2023-03-12T18:20:58.535Z,1.75
2023-03-12T18:23:29.052Z,2.05
2023-03-12T18:25:56.878Z,1.88
2023-03-12T18:28:26.053Z,2.30
2023-03-12T18:30:54.683Z,1.70
2023-03-12T18:33:23.459Z,3.42
2023-03-12T18:35:54.206Z,1.92
2023-03-12T18:38:25.535Z,2.03
2023-03-12T18:40:55.094Z,1.80
2023-03-12T18:43:22.804Z,1.73
2023-03-12T18:45:50.719Z,2.05
2023-03-12T18:48:18.794Z,1.90
2023-03-12T18:50:46.975Z,2.65
2023-03-12T18:53:14.855Z,2.10
2023-03-12T18:55:50.817Z,2.58
2023-03-12T18:58:18.552Z,2.53
2023-03-12T19:00:46.523Z,3.35
2023-03-12T19:03:14.290Z,2.97
2023-03-12T19:05:42.195Z,3.10
2023-03-12T19:08:11.485Z,3.78
2023-03-12T19:10:43.596Z,3.30
2023-03-12T19:13:15.467Z,3.50
2023-03-12T19:15:43.790Z,3.38
2023-03-12T19:18:11.700Z,3.17
2023-03-12T19:20:40.749Z,2.97
2023-03-12T19:23:08.441Z,2.47
2023-03-12T19:25:36.710Z,2.63
2023-03-12T19:28:04.438Z,2.50
2023-03-12T19:30:34.427Z,2.70
2023-03-12T19:33:02.294Z,2.90
2023-03-12T19:35:30.610Z,2.60
2023-03-12T19:37:59.573Z,2.35
2023-03-12T19:40:27.436Z,2.10
2023-03-12T19:42:55.102Z,1.92
2023-03-12T19:45:22.876Z,2.20
2023-03-12T19:47:52.314Z,2.17
2023-03-12T19:50:25.595Z,2.08
2023-03-12T19:52:53.501Z,2.30
2023-03-12T19:55:21.252Z,4.50
2023-03-12T19:57:50.284Z,6.20
2023-03-12T20:00:18.432Z,3.25
2023-03-12T20:02:46.642Z,4.15
2023-03-12T20:05:16.094Z,3.63
2023-03-12T20:07:44.266Z,2.95
2023-03-12T20:10:12.857Z,3.42
2023-03-12T20:12:41.023Z,6.35
2023-03-12T20:15:09.201Z,6.53
2023-03-12T20:17:37.123Z,6.55
2023-03-12T20:20:08.386Z,4.00
2023-03-12T20:22:38.240Z,3.80
2023-03-12T20:25:06.531Z,7.72
2023-03-12T20:27:36.667Z,4.65
2023-03-12T20:30:04.935Z,2.83
2023-03-12T20:32:33.235Z,2.53
2023-03-12T20:35:01.183Z,3.22
2023-03-12T20:37:29.913Z,2.67
2023-03-12T20:39:59.003Z,2.55
2023-03-12T20:42:26.697Z,2.22
2023-03-12T20:44:55.325Z,1.90
2023-03-12T20:47:24.091Z,2.05
2023-03-12T20:49:51.937Z,2.97
2023-03-12T20:52:19.827Z,2.42
2023-03-12T20:54:47.489Z,3.70
2023-03-12T20:57:16.874Z,2.60
2023-03-12T20:59:46.638Z,3.42
2023-03-12T21:02:15.061Z,5.78
2023-03-12T21:04:43.304Z,5.50
2023-03-12T21:07:11.894Z,2.88
2023-03-12T21:09:40.891Z,2.80
2023-03-12T21:12:08.753Z,2.15
2023-03-12T21:14:39.883Z,2.63
2023-03-12T21:17:10.818Z,45.22
2023-03-12T21:19:39.133Z,5.68
2023-03-12T21:22:09.730Z,2.75
2023-03-12T21:24:37.453Z,1.80
2023-03-12T21:27:05.726Z,1.88
2023-03-12T21:29:33.480Z,2.53
2023-03-12T21:32:02.712Z,2.60
2023-03-12T21:34:30.673Z,2.90
2023-03-12T21:36:58.401Z,1.85
2023-03-12T21:39:27.135Z,2.42
2023-03-12T21:41:55.005Z,2.55
2023-03-12T21:44:22.678Z,2.55
2023-03-12T21:46:52.488Z,2.13
2023-03-12T21:49:21.842Z,2.30
2023-03-12T21:51:49.743Z,2.53
2023-03-12T21:54:17.414Z,2.50
2023-03-12T21:56:45.196Z,5.80
2023-03-12T21:59:12.996Z,2.92
2023-03-12T22:01:40.814Z,2.38
2023-03-12T22:04:08.704Z,2.65
2023-03-12T22:06:38.129Z,2.45
2023-03-12T22:09:05.980Z,2.50
2023-03-12T22:11:33.656Z,2.40
2023-03-12T22:14:01.755Z,3.10
2023-03-12T22:16:29.623Z,2.63
2023-03-12T22:18:57.652Z,1.98
2023-03-12T22:21:25.421Z,2.25
2023-03-12T22:23:55.042Z,3.08
2023-03-12T22:26:23.756Z,4.85
2023-03-12T22:28:51.793Z,4.00
2023-03-12T22:31:20.154Z,9.68
2023-03-12T22:33:48.014Z,8.68
2023-03-12T22:36:16.315Z,4.80
2023-03-12T22:38:44.398Z,2.38
2023-03-12T22:41:14.765Z,2.25
2023-03-12T22:43:42.471Z,1.55
2023-03-12T22:46:10.272Z,2.10
2023-03-12T22:48:38.057Z,1.80
2023-03-12T22:51:06.426Z,1.88
2023-03-12T22:53:34.571Z,1.95
2023-03-12T22:56:03.237Z,1.60
2023-03-12T22:58:32.410Z,2.33
2023-03-12T23:01:01.109Z,3.00
2023-03-12T23:03:29.225Z,2.72
2023-03-12T23:05:57.115Z,7.97
2023-03-12T23:08:24.865Z,3.13
2023-03-12T23:10:53.327Z,2.63
2023-03-12T23:13:21.319Z,2.33
2023-03-12T23:15:50.736Z,2.13
2023-03-12T23:18:18.780Z,1.88
2023-03-12T23:20:46.474Z,1.95
2023-03-12T23:23:15.732Z,2.40
2023-03-12T23:25:43.510Z,2.45
2023-03-12T23:28:11.346Z,1.67
2023-03-12T23:30:39.188Z,1.75
2023-03-12T23:33:08.288Z,2.15
2023-03-12T23:35:36.384Z,1.77
2023-03-12T23:38:06.129Z,1.90
2023-03-12T23:40:33.842Z,1.88
2023-03-12T23:43:01.544Z,1.70
2023-03-12T23:45:29.333Z,1.75
2023-03-12T23:47:58.141Z,1.58
2023-03-12T23:50:27.275Z,1.20
2023-03-12T23:52:55.069Z,1.58
2023-03-12T23:55:22.794Z,1.42
2023-03-12T23:57:50.591Z,1.27
